sensor_id;sensor_type;location;lat;lon;timestamp;pressure;altitude;pressure_sealevel;temperature;humidity
71559;BME280;59382;43.852;25.952;2022-10-23T00:00:18;101353.16;;;16.37;47.83
71559;BME280;59382;43.852;25.952;2022-10-23T00:02:43;101371.69;;;16.47;47.97
71559;BME280;59382;43.852;25.952;2022-10-23T00:05:09;101342.16;;;16.32;47.92
71559;BME280;59382;43.852;25.952;2022-10-23T00:07:34;101356.78;;;16.49;47.60
71559;BME280;59382;43.852;25.952;2022-10-23T00:10:00;101366.13;;;16.53;47.62
71559;BME280;59382;43.852;25.952;2022-10-23T00:12:25;101361.75;;;16.52;47.61
71559;BME280;59382;43.852;25.952;2022-10-23T00:14:52;101352.50;;;16.53;47.69
71559;BME280;59382;43.852;25.952;2022-10-23T00:17:18;101356.69;;;16.56;47.63
71559;BME280;59382;43.852;25.952;2022-10-23T00:19:43;101334.25;;;16.42;47.87
71559;BME280;59382;43.852;25.952;2022-10-23T00:22:08;101331.97;;;16.39;47.59
71559;BME280;59382;43.852;25.952;2022-10-23T00:24:35;101327.09;;;16.41;47.88
71559;BME280;59382;43.852;25.952;2022-10-23T00:27:00;101330.91;;;16.40;47.68
71559;BME280;59382;43.852;25.952;2022-10-23T00:29:26;101319.41;;;16.38;47.96
71559;BME280;59382;43.852;25.952;2022-10-23T00:31:52;101325.94;;;16.37;48.24
71559;BME280;59382;43.852;25.952;2022-10-23T00:34:18;101327.47;;;16.33;48.02
71559;BME280;59382;43.852;25.952;2022-10-23T00:36:44;101305.19;;;16.25;48.09
71559;BME280;59382;43.852;25.952;2022-10-23T00:39:09;101298.53;;;16.21;47.80
71559;BME280;59382;43.852;25.952;2022-10-23T00:41:34;101320.22;;;16.27;48.09
71559;BME280;59382;43.852;25.952;2022-10-23T00:44:10;101332.91;;;16.22;48.22
71559;BME280;59382;43.852;25.952;2022-10-23T00:46:54;101337.97;;;16.18;48.19
71559;BME280;59382;43.852;25.952;2022-10-23T00:49:20;101311.41;;;16.02;48.05
71559;BME280;59382;43.852;25.952;2022-10-23T00:51:52;101333.91;;;16.09;48.30
71559;BME280;59382;43.852;25.952;2022-10-23T00:54:22;101326.81;;;16.08;48.53
71559;BME280;59382;43.852;25.952;2022-10-23T00:56:48;101319.69;;;16.07;48.46
71559;BME280;59382;43.852;25.952;2022-10-23T00:59:14;101335.56;;;16.10;48.51
71559;BME280;59382;43.852;25.952;2022-10-23T01:01:40;101355.09;;;16.07;48.38
71559;BME280;59382;43.852;25.952;2022-10-23T01:04:06;101357.09;;;16.00;48.82
71559;BME280;59382;43.852;25.952;2022-10-23T01:07:03;101347.59;;;15.91;49.04
71559;BME280;59382;43.852;25.952;2022-10-23T01:12:25;101359.38;;;15.85;49.37
71559;BME280;59382;43.852;25.952;2022-10-23T01:26:22;101356.44;;;15.87;49.53
71559;BME280;59382;43.852;25.952;2022-10-23T01:28:59;101338.75;;;15.77;49.65
71559;BME280;59382;43.852;25.952;2022-10-23T01:31:38;101352.28;;;15.84;49.87
71559;BME280;59382;43.852;25.952;2022-10-23T01:34:14;101347.47;;;15.86;49.46
71559;BME280;59382;43.852;25.952;2022-10-23T01:36:42;101364.38;;;15.88;49.62
71559;BME280;59382;43.852;25.952;2022-10-23T01:39:18;101359.38;;;15.85;50.06
71559;BME280;59382;43.852;25.952;2022-10-23T01:41:58;101353.22;;;15.78;50.58
71559;BME280;59382;43.852;25.952;2022-10-23T01:44:30;101359.84;;;15.82;50.40
71559;BME280;59382;43.852;25.952;2022-10-23T01:46:57;101360.75;;;15.76;50.56
71559;BME280;59382;43.852;25.952;2022-10-23T01:49:23;101359.72;;;15.77;50.58
71559;BME280;59382;43.852;25.952;2022-10-23T01:51:53;101348.75;;;15.65;51.03
71559;BME280;59382;43.852;25.952;2022-10-23T01:54:25;101355.50;;;15.63;51.11
71559;BME280;59382;43.852;25.952;2022-10-23T01:56:53;101362.69;;;15.57;51.29
71559;BME280;59382;43.852;25.952;2022-10-23T01:59:28;101362.03;;;15.44;51.69
71559;BME280;59382;43.852;25.952;2022-10-23T02:01:56;101365.31;;;15.46;51.90
71559;BME280;59382;43.852;25.952;2022-10-23T02:04:29;101347.47;;;15.38;51.70
71559;BME280;59382;43.852;25.952;2022-10-23T02:06:55;101339.94;;;15.34;51.76
71559;BME280;59382;43.852;25.952;2022-10-23T02:09:21;101372.69;;;15.45;51.70
71559;BME280;59382;43.852;25.952;2022-10-23T02:11:54;101380.00;;;15.45;52.26
71559;BME280;59382;43.852;25.952;2022-10-23T02:20:21;101350.66;;;15.29;52.13
71559;BME280;59382;43.852;25.952;2022-10-23T02:23:02;101353.78;;;15.32;52.31
71559;BME280;59382;43.852;25.952;2022-10-23T02:25:45;101351.22;;;15.37;52.11
71559;BME280;59382;43.852;25.952;2022-10-23T02:28:16;101364.53;;;15.45;51.38
71559;BME280;59382;43.852;25.952;2022-10-23T02:30:44;101384.38;;;15.46;52.18
71559;BME280;59382;43.852;25.952;2022-10-23T02:33:30;101384.69;;;15.38;52.27
71559;BME280;59382;43.852;25.952;2022-10-23T02:35:57;101399.78;;;15.34;52.59
71559;BME280;59382;43.852;25.952;2022-10-23T02:38:43;101393.25;;;15.35;53.44
71559;BME280;59382;43.852;25.952;2022-10-23T02:56:05;101418.59;;;15.11;54.41
71559;BME280;59382;43.852;25.952;2022-10-23T02:59:10;101403.59;;;15.08;54.37
71559;BME280;59382;43.852;25.952;2022-10-23T03:01:47;101411.28;;;15.11;53.96
71559;BME280;59382;43.852;25.952;2022-10-23T03:04:15;101404.84;;;15.06;53.76
71559;BME280;59382;43.852;25.952;2022-10-23T03:06:42;101407.13;;;15.09;53.57
71559;BME280;59382;43.852;25.952;2022-10-23T03:09:08;101413.78;;;15.13;53.61
71559;BME280;59382;43.852;25.952;2022-10-23T03:11:34;101420.66;;;15.15;53.53
71559;BME280;59382;43.852;25.952;2022-10-23T03:14:00;101423.78;;;15.19;53.64
71559;BME280;59382;43.852;25.952;2022-10-23T03:16:25;101396.69;;;15.06;53.51
71559;BME280;59382;43.852;25.952;2022-10-23T03:18:51;101412.91;;;15.19;53.30
71559;BME280;59382;43.852;25.952;2022-10-23T03:21:17;101417.78;;;15.28;53.40
71559;BME280;59382;43.852;25.952;2022-10-23T03:23:42;101396.50;;;15.25;53.19
71559;BME280;59382;43.852;25.952;2022-10-23T03:26:08;101399.34;;;15.37;52.98
71559;BME280;59382;43.852;25.952;2022-10-23T03:28:33;101415.97;;;15.47;53.05
71559;BME280;59382;43.852;25.952;2022-10-23T03:31:00;101405.53;;;15.44;52.92
71559;BME280;59382;43.852;25.952;2022-10-23T03:33:27;101423.81;;;15.55;52.60
71559;BME280;59382;43.852;25.952;2022-10-23T03:35:52;101422.69;;;15.62;52.57
71559;BME280;59382;43.852;25.952;2022-10-23T03:38:18;101420.13;;;15.67;52.42
71559;BME280;59382;43.852;25.952;2022-10-23T03:40:44;101422.78;;;15.74;52.37
71559;BME280;59382;43.852;25.952;2022-10-23T03:43:10;101411.13;;;15.67;52.10
71559;BME280;59382;43.852;25.952;2022-10-23T03:45:36;101413.53;;;15.75;51.88
71559;BME280;59382;43.852;25.952;2022-10-23T03:48:06;101432.28;;;15.83;52.03
71559;BME280;59382;43.852;25.952;2022-10-23T03:50:33;101424.34;;;15.82;51.93
71559;BME280;59382;43.852;25.952;2022-10-23T03:52:59;101433.47;;;15.87;51.88
71559;BME280;59382;43.852;25.952;2022-10-23T03:55:24;101435.00;;;15.83;51.87
71559;BME280;59382;43.852;25.952;2022-10-23T03:57:52;101450.63;;;15.88;51.65
71559;BME280;59382;43.852;25.952;2022-10-23T04:00:18;101453.28;;;15.94;51.75
71559;BME280;59382;43.852;25.952;2022-10-23T04:02:43;101453.88;;;15.96;51.86
71559;BME280;59382;43.852;25.952;2022-10-23T04:05:09;101436.44;;;15.86;51.81
71559;BME280;59382;43.852;25.952;2022-10-23T04:07:35;101442.47;;;15.88;51.89
71559;BME280;59382;43.852;25.952;2022-10-23T04:10:01;101450.16;;;15.91;51.79
71559;BME280;59382;43.852;25.952;2022-10-23T04:12:27;101437.13;;;15.81;51.77
71559;BME280;59382;43.852;25.952;2022-10-23T04:14:52;101453.88;;;15.96;51.60
71559;BME280;59382;43.852;25.952;2022-10-23T04:17:18;101432.56;;;15.93;51.84
71559;BME280;59382;43.852;25.952;2022-10-23T04:19:43;101430.81;;;15.99;51.80
71559;BME280;59382;43.852;25.952;2022-10-23T04:22:09;101432.13;;;15.96;51.70
71559;BME280;59382;43.852;25.952;2022-10-23T04:24:34;101435.66;;;15.97;51.86
71559;BME280;59382;43.852;25.952;2022-10-23T04:27:00;101440.41;;;16.01;51.58
71559;BME280;59382;43.852;25.952;2022-10-23T04:29:25;101439.81;;;15.99;51.82
71559;BME280;59382;43.852;25.952;2022-10-23T04:31:52;101436.63;;;16.02;51.84
71559;BME280;59382;43.852;25.952;2022-10-23T04:34:18;101447.81;;;16.12;51.72
71559;BME280;59382;43.852;25.952;2022-10-23T04:36:43;101451.22;;;16.08;51.93
71559;BME280;59382;43.852;25.952;2022-10-23T04:39:09;101445.03;;;16.01;52.04
71559;BME280;59382;43.852;25.952;2022-10-23T04:41:35;101459.63;;;16.06;52.17
71559;BME280;59382;43.852;25.952;2022-10-23T04:44:03;101459.00;;;16.04;52.03
71559;BME280;59382;43.852;25.952;2022-10-23T04:46:28;101472.63;;;16.04;52.26
71559;BME280;59382;43.852;25.952;2022-10-23T04:48:54;101458.50;;;15.96;52.62
71559;BME280;59382;43.852;25.952;2022-10-23T04:51:19;101479.75;;;16.05;52.39
71559;BME280;59382;43.852;25.952;2022-10-23T04:53:45;101484.13;;;16.06;52.56
71559;BME280;59382;43.852;25.952;2022-10-23T04:56:13;101480.94;;;16.09;52.54
71559;BME280;59382;43.852;25.952;2022-10-23T04:58:40;101484.34;;;16.05;52.84
71559;BME280;59382;43.852;25.952;2022-10-23T05:01:08;101491.97;;;16.14;52.65
71559;BME280;59382;43.852;25.952;2022-10-23T05:03:36;101493.63;;;16.15;52.75
71559;BME280;59382;43.852;25.952;2022-10-23T05:06:02;101491.38;;;16.12;53.05
71559;BME280;59382;43.852;25.952;2022-10-23T05:08:28;101492.09;;;16.19;53.02
71559;BME280;59382;43.852;25.952;2022-10-23T05:10:54;101483.34;;;16.17;53.05
71559;BME280;59382;43.852;25.952;2022-10-23T05:13:22;101499.81;;;16.22;53.14
71559;BME280;59382;43.852;25.952;2022-10-23T05:15:50;101497.66;;;16.13;53.50
71559;BME280;59382;43.852;25.952;2022-10-23T05:18:45;101506.63;;;16.13;53.76
71559;BME280;59382;43.852;25.952;2022-10-23T05:21:21;101498.94;;;16.10;53.75
71559;BME280;59382;43.852;25.952;2022-10-23T05:23:50;101507.09;;;16.10;54.46
71559;BME280;59382;43.852;25.952;2022-10-23T05:26:16;101519.78;;;16.16;54.55
71559;BME280;59382;43.852;25.952;2022-10-23T05:28:44;101514.22;;;16.11;54.90
71559;BME280;59382;43.852;25.952;2022-10-23T05:31:11;101534.41;;;16.22;54.81
71559;BME280;59382;43.852;25.952;2022-10-23T05:33:36;101537.94;;;16.22;55.05
71559;BME280;59382;43.852;25.952;2022-10-23T05:36:03;101539.00;;;16.21;55.43
71559;BME280;59382;43.852;25.952;2022-10-23T05:38:30;101539.69;;;16.17;55.52
71559;BME280;59382;43.852;25.952;2022-10-23T05:40:57;101559.88;;;16.27;55.38
71559;BME280;59382;43.852;25.952;2022-10-23T05:43:22;101558.47;;;16.25;55.78
71559;BME280;59382;43.852;25.952;2022-10-23T05:45:50;101562.00;;;16.25;55.65
71559;BME280;59382;43.852;25.952;2022-10-23T05:48:16;101572.22;;;16.30;55.87
71559;BME280;59382;43.852;25.952;2022-10-23T05:50:41;101564.13;;;16.23;55.86
71559;BME280;59382;43.852;25.952;2022-10-23T05:53:09;101578.03;;;16.33;55.98
71559;BME280;59382;43.852;25.952;2022-10-23T05:55:34;101586.66;;;16.30;56.14
71559;BME280;59382;43.852;25.952;2022-10-23T05:58:01;101583.34;;;16.28;56.30
71559;BME280;59382;43.852;25.952;2022-10-23T06:00:27;101588.63;;;16.41;56.29
71559;BME280;59382;43.852;25.952;2022-10-23T06:02:52;101601.97;;;16.49;56.11
71559;BME280;59382;43.852;25.952;2022-10-23T06:05:18;101592.13;;;16.48;56.14
71559;BME280;59382;43.852;25.952;2022-10-23T06:07:46;101599.69;;;16.64;55.96
71559;BME280;59382;43.852;25.952;2022-10-23T06:10:12;101598.56;;;16.83;55.63
71559;BME280;59382;43.852;25.952;2022-10-23T06:12:37;101612.94;;;17.20;55.41
71559;BME280;59382;43.852;25.952;2022-10-23T06:15:04;101602.53;;;17.40;55.15
71559;BME280;59382;43.852;25.952;2022-10-23T06:17:29;101616.59;;;17.78;54.39
71559;BME280;59382;43.852;25.952;2022-10-23T06:19:55;101593.84;;;17.96;53.89
71559;BME280;59382;43.852;25.952;2022-10-23T06:22:28;101630.13;;;18.54;53.37
71559;BME280;59382;43.852;25.952;2022-10-23T06:24:56;101629.91;;;18.83;52.76
71559;BME280;59382;43.852;25.952;2022-10-23T06:27:22;101634.41;;;19.17;52.09
71559;BME280;59382;43.852;25.952;2022-10-23T06:29:49;101619.69;;;19.35;51.71
71559;BME280;59382;43.852;25.952;2022-10-23T06:32:14;101636.88;;;19.64;51.73
71559;BME280;59382;43.852;25.952;2022-10-23T06:34:40;101635.16;;;19.74;51.01
71559;BME280;59382;43.852;25.952;2022-10-23T06:37:05;101630.41;;;19.86;50.93
71559;BME280;59382;43.852;25.952;2022-10-23T06:39:31;101648.91;;;20.12;50.76
71559;BME280;59382;43.852;25.952;2022-10-23T06:41:56;101634.19;;;20.18;50.48
71559;BME280;59382;43.852;25.952;2022-10-23T06:44:22;101659.09;;;20.33;50.17
71559;BME280;59382;43.852;25.952;2022-10-23T06:46:48;101661.41;;;20.41;50.17
71559;BME280;59382;43.852;25.952;2022-10-23T06:49:14;101671.13;;;20.49;49.94
71559;BME280;59382;43.852;25.952;2022-10-23T06:51:41;101663.69;;;20.49;50.00
71559;BME280;59382;43.852;25.952;2022-10-23T06:54:18;101666.38;;;20.44;49.85
71559;BME280;59382;43.852;25.952;2022-10-23T06:56:44;101656.94;;;20.35;50.18
71559;BME280;59382;43.852;25.952;2022-10-23T06:59:09;101663.44;;;20.29;50.35
71559;BME280;59382;43.852;25.952;2022-10-23T07:01:35;101679.88;;;20.29;50.88
71559;BME280;59382;43.852;25.952;2022-10-23T07:04:18;101688.84;;;20.25;50.80
71559;BME280;59382;43.852;25.952;2022-10-23T07:06:56;101683.88;;;20.22;51.20
71559;BME280;59382;43.852;25.952;2022-10-23T07:09:33;101680.53;;;20.20;50.91
71559;BME280;59382;43.852;25.952;2022-10-23T07:12:07;101660.28;;;20.04;51.26
71559;BME280;59382;43.852;25.952;2022-10-23T07:14:36;101700.06;;;20.23;51.29
71559;BME280;59382;43.852;25.952;2022-10-23T07:17:10;101689.16;;;20.28;51.22
71559;BME280;59382;43.852;25.952;2022-10-23T07:19:44;101696.13;;;20.36;51.39
71559;BME280;59382;43.852;25.952;2022-10-23T07:22:13;101686.00;;;20.36;51.04
71559;BME280;59382;43.852;25.952;2022-10-23T07:24:38;101689.38;;;20.43;51.24
71559;BME280;59382;43.852;25.952;2022-10-23T07:27:08;101696.53;;;20.44;51.13
71559;BME280;59382;43.852;25.952;2022-10-23T07:29:44;101690.56;;;20.47;51.01
71559;BME280;59382;43.852;25.952;2022-10-23T07:32:31;101680.72;;;20.51;50.77
71559;BME280;59382;43.852;25.952;2022-10-23T07:34:59;101697.44;;;20.71;50.91
71559;BME280;59382;43.852;25.952;2022-10-23T07:37:31;101686.47;;;20.71;50.59
71559;BME280;59382;43.852;25.952;2022-10-23T07:39:59;101673.19;;;20.85;50.50
71559;BME280;59382;43.852;25.952;2022-10-23T07:42:27;101696.06;;;21.12;49.88
71559;BME280;59382;43.852;25.952;2022-10-23T07:44:53;101695.41;;;21.26;49.70
71559;BME280;59382;43.852;25.952;2022-10-23T07:47:25;101684.00;;;21.13;49.70
71559;BME280;59382;43.852;25.952;2022-10-23T07:49:53;101704.16;;;21.23;49.58
71559;BME280;59382;43.852;25.952;2022-10-23T07:52:18;101705.84;;;21.24;49.40
71559;BME280;59382;43.852;25.952;2022-10-23T07:54:50;101708.59;;;21.29;49.14
71559;BME280;59382;43.852;25.952;2022-10-23T07:57:32;101700.84;;;21.21;49.25
71559;BME280;59382;43.852;25.952;2022-10-23T08:00:01;101711.09;;;21.31;49.04
71559;BME280;59382;43.852;25.952;2022-10-23T08:02:30;101696.31;;;21.32;49.11
71559;BME280;59382;43.852;25.952;2022-10-23T08:04:58;101693.59;;;21.37;48.51
71559;BME280;59382;43.852;25.952;2022-10-23T08:07:31;101683.66;;;21.31;48.77
71559;BME280;59382;43.852;25.952;2022-10-23T08:09:58;101699.31;;;21.30;48.77
71559;BME280;59382;43.852;25.952;2022-10-23T08:12:26;101676.78;;;21.07;48.86
71559;BME280;59382;43.852;25.952;2022-10-23T08:14:59;101688.09;;;21.10;48.93
71559;BME280;59382;43.852;25.952;2022-10-23T08:17:33;101694.28;;;21.01;49.03
71559;BME280;59382;43.852;25.952;2022-10-23T08:20:02;101707.56;;;21.09;49.10
71559;BME280;59382;43.852;25.952;2022-10-23T08:22:30;101702.06;;;21.09;49.43
71559;BME280;59382;43.852;25.952;2022-10-23T08:25:06;101693.00;;;21.08;48.74
71559;BME280;59382;43.852;25.952;2022-10-23T08:27:44;101695.22;;;21.11;49.14
71559;BME280;59382;43.852;25.952;2022-10-23T08:30:15;101704.16;;;21.23;48.80
71559;BME280;59382;43.852;25.952;2022-10-23T08:32:47;101695.88;;;21.18;48.78
71559;BME280;59382;43.852;25.952;2022-10-23T08:35:14;101696.50;;;21.25;48.60
71559;BME280;59382;43.852;25.952;2022-10-23T08:37:47;101706.44;;;21.31;48.62
71559;BME280;59382;43.852;25.952;2022-10-23T08:40:28;101694.34;;;21.27;48.49
71559;BME280;59382;43.852;25.952;2022-10-23T08:46:18;101698.78;;;21.33;47.83
71559;BME280;59382;43.852;25.952;2022-10-23T08:49:16;101701.78;;;21.32;47.87
71559;BME280;59382;43.852;25.952;2022-10-23T08:51:47;101701.53;;;21.33;47.96
71559;BME280;59382;43.852;25.952;2022-10-23T08:57:29;101703.88;;;21.47;47.70
71559;BME280;59382;43.852;25.952;2022-10-23T09:00:09;101702.22;;;21.46;47.47
71559;BME280;59382;43.852;25.952;2022-10-23T09:02:46;101681.28;;;21.40;47.42
71559;BME280;59382;43.852;25.952;2022-10-23T09:08:53;101714.41;;;21.60;47.28
71559;BME280;59382;43.852;25.952;2022-10-23T09:11:32;101709.97;;;21.54;47.39
71559;BME280;59382;43.852;25.952;2022-10-23T09:17:20;101712.78;;;21.59;47.02
71559;BME280;59382;43.852;25.952;2022-10-23T09:22:48;101708.41;;;21.63;46.64
71559;BME280;59382;43.852;25.952;2022-10-23T09:25:38;101704.56;;;21.64;46.89
71559;BME280;59382;43.852;25.952;2022-10-23T09:28:24;101694.72;;;21.68;46.49
71559;BME280;59382;43.852;25.952;2022-10-23T09:30:52;101701.72;;;21.75;46.62
71559;BME280;59382;43.852;25.952;2022-10-23T09:33:24;101677.69;;;21.66;46.25
71559;BME280;59382;43.852;25.952;2022-10-23T09:36:18;101674.94;;;21.66;46.40
71559;BME280;59382;43.852;25.952;2022-10-23T09:38:51;101652.03;;;21.55;46.38
71559;BME280;59382;43.852;25.952;2022-10-23T09:43:43;101674.66;;;21.67;46.19
71559;BME280;59382;43.852;25.952;2022-10-23T09:46:47;101689.78;;;21.70;45.65
71559;BME280;59382;43.852;25.952;2022-10-23T09:49:29;101690.38;;;21.72;46.00
71559;BME280;59382;43.852;25.952;2022-10-23T09:54:42;101671.06;;;21.67;45.88
71559;BME280;59382;43.852;25.952;2022-10-23T09:57:39;101681.69;;;21.80;45.67
71559;BME280;59382;43.852;25.952;2022-10-23T10:00:24;101673.97;;;21.77;45.61
71559;BME280;59382;43.852;25.952;2022-10-23T10:02:57;101678.16;;;21.84;45.27
71559;BME280;59382;43.852;25.952;2022-10-23T10:05:35;101658.03;;;21.79;45.55
71559;BME280;59382;43.852;25.952;2022-10-23T10:10:54;101654.75;;;21.77;45.45
71559;BME280;59382;43.852;25.952;2022-10-23T10:22:02;101654.28;;;21.90;44.96
71559;BME280;59382;43.852;25.952;2022-10-23T10:28:08;101645.00;;;21.96;44.10
71559;BME280;59382;43.852;25.952;2022-10-23T10:36:50;101642.31;;;22.06;44.03
71559;BME280;59382;43.852;25.952;2022-10-23T10:39:36;101630.78;;;22.09;43.69
71559;BME280;59382;43.852;25.952;2022-10-23T10:42:30;101630.78;;;22.09;43.82
71559;BME280;59382;43.852;25.952;2022-10-23T10:45:22;101626.91;;;22.05;43.56
71559;BME280;59382;43.852;25.952;2022-10-23T10:53:30;101628.88;;;22.14;42.93
71559;BME280;59382;43.852;25.952;2022-10-23T10:56:03;101608.47;;;22.05;42.95
71559;BME280;59382;43.852;25.952;2022-10-23T10:58:42;101620.91;;;22.13;42.98
71559;BME280;59382;43.852;25.952;2022-10-23T11:04:36;101627.53;;;22.17;42.51
71559;BME280;59382;43.852;25.952;2022-10-23T11:07:15;101616.00;;;22.20;42.65
71559;BME280;59382;43.852;25.952;2022-10-23T11:09:46;101617.34;;;22.17;42.30
71559;BME280;59382;43.852;25.952;2022-10-23T11:12:25;101615.19;;;22.19;42.10
71559;BME280;59382;43.852;25.952;2022-10-23T11:14:51;101613.22;;;22.15;42.31
71559;BME280;59382;43.852;25.952;2022-10-23T11:17:25;101607.69;;;22.10;41.80
71559;BME280;59382;43.852;25.952;2022-10-23T11:22:42;101612.91;;;22.11;41.91
71559;BME280;59382;43.852;25.952;2022-10-23T11:36:17;101606.63;;;22.11;41.90
71559;BME280;59382;43.852;25.952;2022-10-23T11:38:45;101575.16;;;21.92;41.90
71559;BME280;59382;43.852;25.952;2022-10-23T11:41:19;101624.25;;;22.20;41.77
71559;BME280;59382;43.852;25.952;2022-10-23T11:48:58;101600.59;;;22.19;41.22
71559;BME280;59382;43.852;25.952;2022-10-23T11:51:38;101590.06;;;22.06;41.10
71559;BME280;59382;43.852;25.952;2022-10-23T11:59:51;101582.94;;;22.10;40.93
71559;BME280;59382;43.852;25.952;2022-10-23T12:02:30;101602.56;;;22.28;40.88
71559;BME280;59382;43.852;25.952;2022-10-23T12:05:04;101583.28;;;22.18;40.99
71559;BME280;59382;43.852;25.952;2022-10-23T12:07:34;101571.19;;;22.19;41.10
71559;BME280;59382;43.852;25.952;2022-10-23T12:10:04;101585.25;;;22.23;40.90
71559;BME280;59382;43.852;25.952;2022-10-23T12:12:33;101587.44;;;22.26;41.12
71559;BME280;59382;43.852;25.952;2022-10-23T12:17:41;101594.38;;;22.33;41.09
71559;BME280;59382;43.852;25.952;2022-10-23T12:39:00;101569.81;;;22.22;41.12
71559;BME280;59382;43.852;25.952;2022-10-23T12:41:28;101580.88;;;22.32;41.03
71559;BME280;59382;43.852;25.952;2022-10-23T12:43:57;101586.13;;;22.38;40.91
71559;BME280;59382;43.852;25.952;2022-10-23T12:48:55;101594.94;;;22.40;40.72
71559;BME280;59382;43.852;25.952;2022-10-23T12:51:24;101595.75;;;22.41;40.60
71559;BME280;59382;43.852;25.952;2022-10-23T12:53:52;101594.63;;;22.37;40.51
71559;BME280;59382;43.852;25.952;2022-10-23T12:56:18;101564.91;;;22.29;40.60
71559;BME280;59382;43.852;25.952;2022-10-23T12:58:56;101566.88;;;22.33;40.44
71559;BME280;59382;43.852;25.952;2022-10-23T13:01:27;101586.97;;;22.44;40.38
71559;BME280;59382;43.852;25.952;2022-10-23T13:06:27;101584.22;;;22.44;40.40
71559;BME280;59382;43.852;25.952;2022-10-23T13:08:56;101578.16;;;22.47;40.37
71559;BME280;59382;43.852;25.952;2022-10-23T13:11:23;101581.50;;;22.49;40.19
71559;BME280;59382;43.852;25.952;2022-10-23T13:13:50;101568.84;;;22.48;39.78
71559;BME280;59382;43.852;25.952;2022-10-23T13:16:26;101567.81;;;22.54;39.84
71559;BME280;59382;43.852;25.952;2022-10-23T13:18:51;101574.41;;;22.58;39.88
71559;BME280;59382;43.852;25.952;2022-10-23T13:23:47;101579.38;;;22.61;39.76
71559;BME280;59382;43.852;25.952;2022-10-23T13:26:36;101577.69;;;22.55;39.79
71559;BME280;59382;43.852;25.952;2022-10-23T13:29:30;101579.91;;;22.58;39.75
71559;BME280;59382;43.852;25.952;2022-10-23T13:31:56;101556.16;;;22.42;39.86
71559;BME280;59382;43.852;25.952;2022-10-23T13:34:31;101574.94;;;22.55;39.66
71559;BME280;59382;43.852;25.952;2022-10-23T13:37:20;101588.69;;;22.55;39.90
71559;BME280;59382;43.852;25.952;2022-10-23T13:39:59;101581.50;;;22.49;39.82
71559;BME280;59382;43.852;25.952;2022-10-23T13:42:28;101573.75;;;22.41;39.70
71559;BME280;59382;43.852;25.952;2022-10-23T13:44:56;101587.53;;;22.46;39.83
71559;BME280;59382;43.852;25.952;2022-10-23T13:47:24;101582.31;;;22.49;39.91
71559;BME280;59382;43.852;25.952;2022-10-23T13:49:50;101570.47;;;22.39;39.89
71559;BME280;59382;43.852;25.952;2022-10-23T13:52:19;101582.56;;;22.43;39.68
71559;BME280;59382;43.852;25.952;2022-10-23T13:54:49;101586.44;;;22.47;39.79
71559;BME280;59382;43.852;25.952;2022-10-23T13:57:25;101597.44;;;22.47;39.90
71559;BME280;59382;43.852;25.952;2022-10-23T13:59:51;101565.47;;;22.26;39.93
71559;BME280;59382;43.852;25.952;2022-10-23T14:02:24;101588.63;;;22.45;39.89
71559;BME280;59382;43.852;25.952;2022-10-23T14:04:52;101579.50;;;22.34;39.63
71559;BME280;59382;43.852;25.952;2022-10-23T14:07:41;101582.28;;;22.39;39.68
71559;BME280;59382;43.852;25.952;2022-10-23T14:10:09;101584.78;;;22.46;39.71
71559;BME280;59382;43.852;25.952;2022-10-23T14:12:43;101582.28;;;22.39;39.82
71559;BME280;59382;43.852;25.952;2022-10-23T14:15:09;101587.50;;;22.41;40.11
71559;BME280;59382;43.852;25.952;2022-10-23T14:17:35;101591.09;;;22.41;40.00
71559;BME280;59382;43.852;25.952;2022-10-23T14:20:04;101592.47;;;22.39;40.02
71559;BME280;59382;43.852;25.952;2022-10-23T14:22:30;101605.69;;;22.47;40.01
71559;BME280;59382;43.852;25.952;2022-10-23T14:24:58;101572.91;;;22.30;40.07
71559;BME280;59382;43.852;25.952;2022-10-23T14:27:31;101604.03;;;22.46;39.71
71559;BME280;59382;43.852;25.952;2022-10-23T14:30:00;101600.19;;;22.47;40.07
71559;BME280;59382;43.852;25.952;2022-10-23T14:32:29;101599.63;;;22.45;40.10
71559;BME280;59382;43.852;25.952;2022-10-23T14:34:55;101574.25;;;22.28;40.01
71559;BME280;59382;43.852;25.952;2022-10-23T14:37:31;101605.16;;;22.50;39.88
71559;BME280;59382;43.852;25.952;2022-10-23T14:40:00;101599.38;;;22.46;39.99
71559;BME280;59382;43.852;25.952;2022-10-23T14:42:28;101597.44;;;22.47;39.90
71559;BME280;59382;43.852;25.952;2022-10-23T14:44:59;101557.75;;;22.23;39.98
71559;BME280;59382;43.852;25.952;2022-10-23T14:47:33;101589.41;;;22.35;40.08
71559;BME280;59382;43.852;25.952;2022-10-23T14:50:02;101591.88;;;22.32;40.23
71559;BME280;59382;43.852;25.952;2022-10-23T14:52:31;101591.88;;;22.32;40.36
71559;BME280;59382;43.852;25.952;2022-10-23T14:54:56;101595.44;;;22.27;40.45
71559;BME280;59382;43.852;25.952;2022-10-23T14:57:35;101596.81;;;22.30;40.30
71559;BME280;59382;43.852;25.952;2022-10-23T15:00:02;101598.72;;;22.24;40.62
71559;BME280;59382;43.852;25.952;2022-10-23T15:02:46;101613.28;;;22.25;40.56
71559;BME280;59382;43.852;25.952;2022-10-23T15:05:12;101602.22;;;22.15;40.66
71559;BME280;59382;43.852;25.952;2022-10-23T15:07:46;101604.41;;;22.13;40.79
71559;BME280;59382;43.852;25.952;2022-10-23T15:10:15;101609.63;;;22.09;40.83
71559;BME280;59382;43.852;25.952;2022-10-23T15:12:45;101612.63;;;22.08;41.02
71559;BME280;59382;43.852;25.952;2022-10-23T15:15:14;101599.91;;;21.97;41.13
71559;BME280;59382;43.852;25.952;2022-10-23T15:17:51;101607.91;;;21.98;41.43